Abingdon, Maryland
Current Conditions -  °F | °C
As of 3:21 AM on Sunday 26 Oct 2014 (Local Time) from KMTN Reporting Station
Clear Clear  
Wind Chill: 61°   Ceiling: Unl
Heat Index: 61°   Visibility: 10mi
Dew Point: 48°   Wind: 0mph
Humidity: 63%   Direction: NA
Pressure: 29.67"   Gusts: NA
Location:  39.46°N, 76.28°W
Report Text: KMTN 260721Z AUTO 00000KT 10SM CLR 16/09 A2967 RMK AO2
Loading
Personal Weather Stations






























Interactive Weather Map
Tropical Storm Tracking
New forecast layout! Learn more

10-Day Weather Forecast

Advertisements
Track Severe Weather on mobile